createdAt,value
2023-01-21T00:01:55.918Z,423.00
2023-01-21T00:06:57.160Z,543.00
2023-01-21T00:11:55.276Z,655.00
2023-01-21T00:16:55.497Z,643.00
2023-01-21T00:21:53.705Z,590.00
2023-01-21T00:26:52.869Z,639.00
2023-01-21T00:31:53.193Z,500.00
2023-01-21T00:36:51.182Z,470.00
2023-01-21T00:41:50.357Z,471.00
2023-01-21T00:46:49.748Z,504.00
2023-01-21T00:51:49.766Z,544.00
2023-01-21T00:56:47.932Z,514.00
2023-01-21T01:01:48.223Z,664.00
2023-01-21T01:06:46.371Z,452.00
2023-01-21T01:11:45.706Z,602.00
2023-01-21T01:16:44.122Z,574.00
2023-01-21T01:21:45.199Z,661.00
2023-01-21T01:26:44.473Z,656.00
2023-01-21T01:31:42.774Z,652.00
2023-01-21T01:36:42.083Z,636.00
2023-01-21T01:41:41.388Z,630.00
2023-01-21T01:46:40.764Z,630.00
2023-01-21T01:51:39.961Z,640.00
2023-01-21T01:56:39.179Z,619.00
2023-01-21T02:01:38.491Z,620.00
2023-01-21T02:06:37.828Z,606.00
2023-01-21T02:11:36.918Z,607.00
2023-01-21T02:16:37.340Z,604.00
2023-01-21T02:21:36.458Z,604.00
2023-01-21T02:26:34.778Z,608.00
2023-01-21T02:31:33.113Z,598.00
2023-01-21T02:36:33.422Z,597.00
2023-01-21T02:41:33.713Z,604.00
2023-01-21T02:46:32.023Z,594.00
2023-01-21T02:51:32.305Z,596.00
2023-01-21T02:56:32.641Z,590.00
2023-01-21T03:01:29.922Z,588.00
2023-01-21T03:06:29.222Z,600.00
2023-01-21T03:11:28.493Z,602.00
2023-01-21T03:16:28.938Z,589.00
2023-01-21T03:21:28.061Z,597.00
2023-01-21T03:26:26.377Z,594.00
2023-01-21T03:31:25.640Z,587.00
2023-01-21T03:36:24.916Z,601.00
2023-01-21T03:41:25.242Z,568.00
2023-01-21T03:46:24.654Z,593.00
2023-01-21T03:51:22.778Z,587.00
2023-01-21T03:56:21.910Z,585.00
2023-01-21T04:01:21.099Z,590.00
2023-01-21T04:06:20.239Z,591.00
2023-01-21T04:11:19.523Z,580.00
2023-01-21T04:16:18.743Z,579.00
2023-01-21T04:21:17.937Z,567.00
2023-01-21T04:26:16.166Z,579.00
2023-01-21T04:31:17.442Z,577.00
2023-01-21T04:36:15.695Z,575.00
2023-01-21T04:41:14.883Z,582.00
2023-01-21T04:46:16.127Z,556.00
2023-01-21T04:51:14.397Z,579.00
2023-01-21T04:56:13.621Z,590.00
2023-01-21T05:01:11.870Z,568.00
2023-01-21T05:06:12.073Z,574.00
2023-01-21T05:11:11.272Z,579.00
2023-01-21T05:16:10.497Z,560.00
2023-01-21T05:21:09.729Z,591.00
2023-01-21T05:26:07.905Z,585.00
2023-01-21T05:31:07.215Z,580.00
2023-01-21T05:36:07.346Z,579.00
2023-01-21T05:41:05.536Z,566.00
2023-01-21T05:46:07.751Z,574.00
2023-01-21T05:51:05.973Z,583.00
2023-01-21T05:56:03.160Z,590.00
2023-01-21T06:01:02.341Z,610.00
2023-01-21T06:06:02.531Z,584.00
2023-01-21T06:11:01.783Z,567.00
2023-01-21T06:16:02.027Z,573.00
2023-01-21T06:21:00.204Z,580.00
2023-01-21T06:25:59.364Z,594.00
2023-01-21T06:30:58.652Z,585.00
2023-01-21T06:35:56.678Z,585.00
2023-01-21T06:40:55.869Z,593.00
2023-01-21T06:45:55.151Z,586.00
2023-01-21T06:50:54.401Z,584.00
2023-01-21T06:55:54.613Z,582.00
2023-01-21T07:00:54.797Z,554.00
2023-01-21T07:05:50.984Z,584.00
2023-01-21T07:10:51.258Z,579.00
2023-01-21T07:15:51.502Z,600.00
2023-01-21T07:20:49.676Z,600.00
2023-01-21T07:25:48.832Z,596.00
2023-01-21T07:30:49.044Z,582.00
2023-01-21T07:35:49.215Z,580.00
2023-01-21T07:40:46.407Z,587.00
2023-01-21T07:45:45.592Z,595.00
2023-01-21T07:50:44.821Z,594.00
2023-01-21T07:55:44.009Z,594.00
2023-01-21T08:00:43.186Z,587.00
2023-01-21T08:05:43.348Z,591.00
2023-01-21T08:10:41.558Z,594.00
2023-01-21T08:15:40.743Z,592.00
2023-01-21T08:20:39.928Z,590.00
2023-01-21T08:25:39.084Z,581.00
2023-01-21T08:30:38.296Z,571.00
2023-01-21T08:35:37.491Z,588.00
2023-01-21T08:40:37.675Z,635.00
2023-01-21T08:45:36.846Z,584.00
2023-01-21T08:50:35.019Z,595.00
2023-01-21T08:55:35.190Z,589.00
2023-01-21T09:00:33.341Z,595.00
2023-01-21T09:05:34.530Z,597.00
2023-01-21T09:10:31.728Z,591.00
2023-01-21T09:15:32.905Z,595.00
2023-01-21T09:20:29.115Z,582.00
2023-01-21T09:25:30.330Z,588.00
2023-01-21T09:30:28.520Z,584.00
2023-01-21T09:35:27.712Z,606.00
2023-01-21T09:40:26.908Z,621.00
2023-01-21T09:45:27.116Z,627.00
2023-01-21T09:50:25.339Z,644.00
2023-01-21T09:55:24.533Z,704.00
2023-01-21T10:00:24.759Z,735.00
2023-01-21T10:05:23.973Z,694.00
2023-01-21T10:10:22.139Z,709.00
2023-01-21T10:15:21.326Z,667.00
2023-01-21T10:20:20.496Z,677.00
2023-01-21T10:25:19.795Z,663.00
2023-01-21T10:30:19.858Z,622.00
2023-01-21T10:35:18.324Z,677.00
2023-01-21T10:40:17.279Z,676.00
2023-01-21T10:45:16.818Z,692.00
2023-01-21T10:50:14.806Z,739.00
2023-01-21T10:55:16.545Z,722.00
2023-01-21T11:00:14.303Z,742.00
2023-01-21T11:05:14.761Z,750.00
2023-01-21T11:10:12.948Z,759.00
2023-01-21T11:15:12.245Z,770.00
2023-01-21T11:20:11.578Z,819.00
2023-01-21T11:25:10.919Z,803.00
2023-01-21T11:30:26.076Z,814.00
2023-01-21T11:35:10.714Z,810.00
2023-01-21T11:40:09.537Z,845.00
2023-01-21T11:45:07.892Z,848.00
2023-01-21T11:50:07.070Z,854.00
2023-01-21T11:55:06.224Z,870.00
2023-01-21T12:00:05.374Z,883.00
2023-01-21T12:05:05.506Z,874.00
2023-01-21T12:10:04.895Z,831.00
2023-01-21T12:15:04.018Z,865.00
2023-01-21T12:20:03.201Z,867.00
2023-01-21T12:25:01.547Z,805.00
2023-01-21T12:30:00.655Z,576.00
2023-01-21T12:34:59.986Z,646.00
2023-01-21T12:40:01.317Z,635.00
2023-01-21T12:44:57.599Z,570.00
2023-01-21T12:49:57.946Z,595.00
2023-01-21T12:54:57.225Z,524.00
2023-01-21T12:59:56.552Z,515.00
2023-01-21T13:04:55.835Z,589.00
2023-01-21T13:09:56.218Z,553.00
2023-01-21T13:14:53.364Z,555.00
2023-01-21T13:19:53.657Z,551.00
2023-01-21T13:24:52.947Z,593.00
2023-01-21T13:29:51.252Z,640.00
2023-01-21T13:34:51.535Z,452.00
2023-01-21T13:39:50.863Z,582.00
2023-01-21T13:44:51.187Z,606.00
2023-01-21T13:49:49.697Z,665.00
2023-01-21T13:54:50.855Z,634.00
2023-01-21T13:59:48.184Z,603.00
2023-01-21T14:04:47.262Z,560.00
2023-01-21T14:09:46.589Z,509.00
2023-01-21T14:14:45.900Z,611.00
2023-01-21T14:19:45.206Z,611.00
2023-01-21T14:24:44.361Z,630.00
2023-01-21T14:29:44.878Z,649.00
2023-01-21T14:34:41.974Z,641.00
2023-01-21T14:39:42.208Z,504.00
2023-01-21T14:44:40.367Z,663.00
2023-01-21T14:49:42.563Z,673.00
2023-01-21T14:54:40.669Z,730.00
2023-01-21T14:59:40.942Z,789.00
2023-01-21T15:04:39.375Z,739.00
2023-01-21T15:09:37.717Z,714.00
2023-01-21T15:14:36.988Z,669.00
2023-01-21T15:19:36.851Z,648.00
2023-01-21T15:24:35.020Z,730.00
2023-01-21T15:29:34.205Z,688.00
2023-01-21T15:34:33.414Z,653.00
2023-01-21T15:39:33.867Z,645.00
2023-01-21T15:44:34.701Z,755.00
2023-01-21T15:49:31.400Z,678.00
2023-01-21T15:54:30.463Z,675.00
2023-01-21T15:59:30.633Z,730.00
2023-01-21T16:04:29.080Z,781.00
2023-01-21T16:09:28.107Z,567.00
2023-01-21T16:14:27.378Z,692.00
2023-01-21T16:19:26.560Z,729.00
2023-01-21T16:24:26.835Z,599.00
2023-01-21T16:29:25.335Z,666.00
2023-01-21T16:34:24.659Z,665.00
2023-01-21T16:39:24.988Z,651.00
2023-01-21T16:44:24.192Z,579.00
2023-01-21T16:49:23.262Z,681.00
2023-01-21T16:54:21.856Z,628.00
2023-01-21T16:59:20.708Z,787.00
2023-01-21T17:04:21.909Z,661.00
2023-01-21T17:09:20.148Z,602.00
2023-01-21T17:14:19.751Z,676.00
2023-01-21T17:19:18.000Z,667.00
2023-01-21T17:24:17.877Z,606.00
2023-01-21T17:29:17.043Z,631.00
2023-01-21T17:34:15.281Z,630.00
2023-01-21T17:39:15.600Z,653.00
2023-01-21T17:44:14.151Z,695.00
2023-01-21T17:49:13.855Z,621.00
2023-01-21T17:54:16.675Z,576.00
2023-01-21T17:59:11.764Z,689.00
2023-01-21T18:04:12.045Z,726.00
2023-01-21T18:09:11.385Z,711.00
2023-01-21T18:14:10.427Z,703.00
2023-01-21T18:19:09.589Z,671.00
2023-01-21T18:24:08.229Z,669.00
2023-01-21T18:29:08.248Z,624.00
2023-01-21T18:34:07.532Z,660.00
2023-01-21T18:39:05.744Z,742.00
2023-01-21T18:44:04.985Z,641.00
2023-01-21T18:49:05.325Z,705.00
2023-01-21T18:54:08.465Z,683.00
2023-01-21T18:59:02.907Z,614.00
2023-01-21T19:04:02.877Z,676.00
2023-01-21T19:09:01.592Z,599.00
2023-01-21T19:14:00.336Z,511.00
2023-01-21T19:18:59.679Z,615.00
2023-01-21T19:23:59.144Z,645.00
2023-01-21T19:29:01.671Z,714.00
2023-01-21T19:33:57.666Z,651.00
2023-01-21T19:38:59.096Z,660.00
2023-01-21T19:43:57.143Z,689.00
2023-01-21T19:48:55.476Z,643.00
2023-01-21T19:53:55.391Z,618.00
2023-01-21T19:58:53.788Z,642.00
2023-01-21T20:04:00.110Z,623.00
2023-01-21T20:08:52.150Z,595.00
2023-01-21T20:13:52.517Z,637.00
2023-01-21T20:18:50.720Z,678.00
2023-01-21T20:23:49.609Z,584.00
2023-01-21T20:28:50.107Z,593.00
2023-01-21T20:33:48.325Z,586.00
2023-01-21T20:38:48.455Z,595.00
2023-01-21T20:43:52.291Z,613.00
2023-01-21T20:48:47.886Z,597.00
2023-01-21T20:53:46.225Z,606.00
2023-01-21T20:58:45.166Z,605.00
2023-01-21T21:03:45.438Z,581.00
2023-01-21T21:08:42.612Z,614.00
2023-01-21T21:13:41.945Z,642.00
2023-01-21T21:18:42.438Z,631.00
2023-01-21T21:23:42.642Z,709.00
2023-01-21T21:28:39.549Z,656.00
2023-01-21T21:33:40.044Z,706.00
2023-01-21T21:38:38.219Z,660.00
2023-01-21T21:43:37.069Z,668.00
2023-01-21T21:48:36.259Z,656.00
2023-01-21T21:53:35.442Z,672.00
2023-01-21T21:58:34.933Z,692.00
2023-01-21T22:03:35.482Z,669.00
2023-01-21T22:08:33.214Z,652.00
2023-01-21T22:13:34.491Z,761.00
2023-01-21T22:18:32.658Z,731.00
2023-01-21T22:23:30.875Z,687.00
2023-01-21T22:28:31.053Z,666.00
2023-01-21T22:33:29.241Z,696.00
2023-01-21T22:38:27.432Z,673.00
2023-01-21T22:43:28.628Z,673.00
2023-01-21T22:48:26.806Z,694.00
2023-01-21T22:53:27.012Z,727.00
2023-01-21T22:58:25.196Z,715.00
2023-01-21T23:03:24.370Z,698.00
2023-01-21T23:08:23.547Z,723.00
2023-01-21T23:13:23.752Z,777.00
2023-01-21T23:18:22.936Z,716.00
2023-01-21T23:23:22.241Z,707.00
2023-01-21T23:28:21.411Z,727.00
2023-01-21T23:33:20.625Z,734.00
2023-01-21T23:38:19.343Z,745.00
2023-01-21T23:43:18.166Z,728.00
2023-01-21T23:48:17.368Z,718.00
2023-01-21T23:53:16.543Z,733.00
2023-01-21T23:58:15.725Z,708.00
